Time;durP1;ratioP1;P1;durP2;ratioP2;P2;SDS_P1;SDS_P2;PMS_P1;PMS_P2;Temp;Humidity;BMP_temperature;BMP_pressure;BME280_temperature;BME280_humidity;BME280_pressure;Samples;Min_cycle;Max_cycle;Signal;HPM_P1;HPM_P2
2022/10/15 00:01:07;;;;;;;3.38;1.30;;;;;;;;;;5033359;28;20501;-81
2022/10/15 00:03:35;;;;;;;3.47;1.20;;;;;;;;;;5033696;28;20029;-81
2022/10/15 00:06:12;;;;;;;4.95;1.75;;;;;;;;;;5033404;28;20021;-81
2022/10/15 00:08:38;;;;;;;4.13;1.33;;;;;;;;;;5033567;28;20029;-80
2022/10/15 00:11:09;;;;;;;4.65;1.80;;;;;;;;;;5033618;28;20032;-81
2022/10/15 00:13:36;;;;;;;2.63;1.48;;;;;;;;;;5033427;28;20136;-80
2022/10/15 00:16:03;;;;;;;5.10;1.60;;;;;;;;;;5033012;28;20036;-81
2022/10/15 00:18:30;;;;;;;2.17;1.52;;;;;;;;;;5048549;28;20042;-81
2022/10/15 00:20:56;;;;;;;3.70;1.38;;;;;;;;;;5033096;28;20029;-80
2022/10/15 00:23:22;;;;;;;7.38;1.52;;;;;;;;;;5033383;28;20079;-81
2022/10/15 00:25:49;;;;;;;4.60;1.90;;;;;;;;;;5033177;28;20022;-80
2022/10/15 00:28:15;;;;;;;5.43;1.58;;;;;;;;;;5032937;28;20027;-73
2022/10/15 00:30:41;;;;;;;10.07;1.63;;;;;;;;;;5033105;28;20048;-81
2022/10/15 00:33:08;;;;;;;5.90;1.73;;;;;;;;;;5032901;28;20040;-81
2022/10/15 00:35:34;;;;;;;5.45;1.80;;;;;;;;;;5032949;28;20024;-81
2022/10/15 00:38:00;;;;;;;4.88;1.70;;;;;;;;;;5032838;28;20548;-81
2022/10/15 00:40:27;;;;;;;8.00;1.75;;;;;;;;;;5032852;28;20025;-81
2022/10/15 00:42:53;;;;;;;4.50;1.70;;;;;;;;;;5037601;28;20060;-81
2022/10/15 00:45:19;;;;;;;4.97;2.00;;;;;;;;;;5037248;28;20028;-80
2022/10/15 00:47:48;;;;;;;6.50;1.80;;;;;;;;;;5048662;28;20039;-81
2022/10/15 00:50:23;;;;;;;4.45;1.83;;;;;;;;;;5032870;28;20032;-81
2022/10/15 00:52:49;;;;;;;5.45;1.63;;;;;;;;;;5032642;28;20046;-81
2022/10/15 00:55:25;;;;;;;3.17;1.50;;;;;;;;;;5032904;28;20063;-80
2022/10/15 00:57:52;;;;;;;4.03;2.30;;;;;;;;;;5032656;28;20048;-81
2022/10/15 01:00:19;;;;;;;3.40;2.00;;;;;;;;;;5032689;28;20034;-81
2022/10/15 01:02:45;;;;;;;5.60;2.33;;;;;;;;;;5032484;28;20026;-81
2022/10/15 01:05:12;;;;;;;6.43;2.13;;;;;;;;;;5032360;28;20026;-81
2022/10/15 01:07:38;;;;;;;7.28;1.88;;;;;;;;;;5031305;28;20029;-81
2022/10/15 01:10:05;;;;;;;9.85;2.25;;;;;;;;;;5032484;28;20079;-81
2022/10/15 01:12:38;;;;;;;6.60;1.65;;;;;;;;;;5032045;28;20536;-81
2022/10/15 01:15:04;;;;;;;3.20;1.60;;;;;;;;;;5032888;28;20029;-81
2022/10/15 01:17:52;;;;;;;8.43;1.88;;;;;;;;;;5032183;28;20032;-81
2022/10/15 01:20:37;;;;;;;5.45;2.05;;;;;;;;;;5032453;28;20029;-81
2022/10/15 01:23:21;;;;;;;4.18;1.60;;;;;;;;;;5032304;28;20330;-81
2022/10/15 01:25:54;;;;;;;13.00;2.03;;;;;;;;;;5032263;28;20028;-80
2022/10/15 01:28:20;;;;;;;6.80;2.00;;;;;;;;;;5031746;28;20025;-81
2022/10/15 01:30:49;;;;;;;10.55;1.88;;;;;;;;;;5031821;28;20104;-80
2022/10/15 01:33:34;;;;;;;7.78;1.80;;;;;;;;;;5032060;28;20029;-81
2022/10/15 01:36:01;;;;;;;5.47;1.80;;;;;;;;;;5032381;28;20018;-80
2022/10/15 01:38:32;;;;;;;9.18;2.35;;;;;;;;;;5032109;28;20482;-81
2022/10/15 01:40:59;;;;;;;2.60;1.65;;;;;;;;;;5031863;28;20026;-80
2022/10/15 01:43:46;;;;;;;10.63;2.45;;;;;;;;;;5031727;28;20026;-81
2022/10/15 01:46:16;;;;;;;6.13;1.80;;;;;;;;;;5031835;28;20087;-81
2022/10/15 01:48:42;;;;;;;5.60;1.90;;;;;;;;;;5036161;28;20026;-81
2022/10/15 01:51:10;;;;;;;7.72;1.80;;;;;;;;;;5035931;28;20028;-80
2022/10/15 01:53:37;;;;;;;4.00;1.60;;;;;;;;;;5036220;28;20033;-81
2022/10/15 01:56:07;;;;;;;6.25;1.77;;;;;;;;;;5034427;28;20024;-80
2022/10/15 01:58:35;;;;;;;3.30;1.58;;;;;;;;;;5036008;28;20030;-81
2022/10/15 02:01:02;;;;;;;7.03;2.10;;;;;;;;;;5045188;28;20093;-80
2022/10/15 02:03:28;;;;;;;14.10;3.15;;;;;;;;;;5035991;28;20463;-81
2022/10/15 02:05:59;;;;;;;7.80;2.40;;;;;;;;;;5035872;28;20025;-81
2022/10/15 02:08:25;;;;;;;;;;;;;;;;;;5036205;28;20025;-81
2022/10/15 02:10:55;;;;;;;8.55;2.70;;;;;;;;;;5035177;28;19958;-81
2022/10/15 02:13:22;;;;;;;4.00;2.63;;;;;;;;;;5035667;28;20041;-81
2022/10/15 02:15:51;;;;;;;4.05;2.60;;;;;;;;;;5035644;28;20494;-81
2022/10/15 02:18:39;;;;;;;4.82;2.90;;;;;;;;;;5035848;28;20496;-82
2022/10/15 02:21:09;;;;;;;20.02;2.83;;;;;;;;;;5035614;28;20031;-81
2022/10/15 02:23:41;;;;;;;14.90;3.35;;;;;;;;;;5050726;28;20029;-81
2022/10/15 02:26:09;;;;;;;6.65;3.10;;;;;;;;;;5034883;28;20028;-81
2022/10/15 02:28:37;;;;;;;17.08;3.88;;;;;;;;;;5035246;28;20444;-81
2022/10/15 02:31:04;;;;;;;34.75;4.00;;;;;;;;;;5035150;28;20030;-81
2022/10/15 02:33:31;;;;;;;13.43;3.10;;;;;;;;;;5035487;28;20031;-80
2022/10/15 02:35:58;;;;;;;24.45;3.42;;;;;;;;;;5035256;28;20037;-81
2022/10/15 02:38:26;;;;;;;19.50;3.63;;;;;;;;;;5035166;28;20029;-80
2022/10/15 02:40:53;;;;;;;14.00;3.28;;;;;;;;;;5034694;28;20489;-81
2022/10/15 02:43:20;;;;;;;29.88;3.50;;;;;;;;;;5034759;28;20437;-81
2022/10/15 02:45:46;;;;;;;19.00;3.20;;;;;;;;;;5035094;28;20059;-81
2022/10/15 02:48:13;;;;;;;16.08;3.33;;;;;;;;;;5034963;28;20025;-81
2022/10/15 02:50:39;;;;;;;6.70;3.38;;;;;;;;;;5035084;28;20036;-81
2022/10/15 02:53:05;;;;;;;8.40;2.60;;;;;;;;;;5034975;28;20022;-80
2022/10/15 02:55:32;;;;;;;8.30;2.95;;;;;;;;;;5034563;28;20483;-81
2022/10/15 02:57:58;;;;;;;4.95;2.72;;;;;;;;;;5034160;28;20021;-81
2022/10/15 03:00:24;;;;;;;15.10;2.67;;;;;;;;;;5034200;28;20024;-80
2022/10/15 03:02:51;;;;;;;7.88;2.53;;;;;;;;;;5034725;28;20018;-81
2022/10/15 03:05:17;;;;;;;7.80;2.35;;;;;;;;;;5034946;28;20030;-81
2022/10/15 03:07:43;;;;;;;34.63;2.88;;;;;;;;;;5034978;28;20056;-81
2022/10/15 03:10:10;;;;;;;5.68;2.38;;;;;;;;;;5034349;28;20026;-81
2022/10/15 03:12:36;;;;;;;8.80;2.90;;;;;;;;;;5034492;28;20030;-81
2022/10/15 03:15:03;;;;;;;11.98;2.70;;;;;;;;;;5034487;28;20055;-80
2022/10/15 03:17:29;;;;;;;16.17;3.03;;;;;;;;;;5038580;28;20069;-79
2022/10/15 03:19:55;;;;;;;10.98;2.95;;;;;;;;;;5037270;28;20022;-81
2022/10/15 03:22:22;;;;;;;21.35;2.90;;;;;;;;;;5034044;28;20364;-80
2022/10/15 03:24:48;;;;;;;7.25;3.15;;;;;;;;;;5049626;28;20397;-81
2022/10/15 03:27:14;;;;;;;56.13;2.80;;;;;;;;;;5034426;28;20087;-81
2022/10/15 03:29:41;;;;;;;14.27;2.97;;;;;;;;;;5049609;28;20018;-80
2022/10/15 03:32:07;;;;;;;27.55;2.85;;;;;;;;;;5034158;28;20047;-81
2022/10/15 03:34:33;;;;;;;7.68;2.47;;;;;;;;;;5034189;28;20047;-81
2022/10/15 03:37:00;;;;;;;10.38;2.05;;;;;;;;;;5033908;28;20389;-80
2022/10/15 03:39:26;;;;;;;27.40;2.50;;;;;;;;;;5033969;28;20021;-81
2022/10/15 03:41:53;;;;;;;6.88;2.25;;;;;;;;;;5033771;28;20079;-80
2022/10/15 03:44:19;;;;;;;7.63;2.35;;;;;;;;;;5033895;28;20059;-80
2022/10/15 03:46:45;;;;;;;3.42;2.30;;;;;;;;;;5034127;28;20039;-81
2022/10/15 03:49:12;;;;;;;5.85;2.03;;;;;;;;;;5033934;28;20024;-80
2022/10/15 03:51:38;;;;;;;6.75;2.10;;;;;;;;;;5033706;28;20040;-81
2022/10/15 03:54:04;;;;;;;7.35;2.33;;;;;;;;;;5033687;28;20059;-81
2022/10/15 03:56:31;;;;;;;11.35;1.98;;;;;;;;;;5033800;28;20500;-81
2022/10/15 03:58:57;;;;;;;11.18;2.00;;;;;;;;;;5033681;28;20051;-81
2022/10/15 04:01:23;;;;;;;23.13;2.50;;;;;;;;;;5033900;28;20032;-81
2022/10/15 04:03:53;;;;;;;22.33;2.30;;;;;;;;;;5033985;28;20028;-81
2022/10/15 04:06:19;;;;;;;9.82;2.40;;;;;;;;;;5033262;28;20401;-81
2022/10/15 04:08:46;;;;;;;14.75;2.40;;;;;;;;;;5033650;28;20017;-81
2022/10/15 04:11:12;;;;;;;8.30;2.00;;;;;;;;;;5033043;28;20030;-81
2022/10/15 04:13:39;;;;;;;32.90;2.50;;;;;;;;;;5033425;28;20135;-81
2022/10/15 04:16:05;;;;;;;3.65;2.35;;;;;;;;;;5033309;28;20028;-81
2022/10/15 04:18:32;;;;;;;23.58;2.50;;;;;;;;;;5033594;28;20376;-80
2022/10/15 04:20:58;;;;;;;2.88;2.08;;;;;;;;;;5032835;28;20397;-81
2022/10/15 04:23:25;;;;;;;8.32;2.22;;;;;;;;;;5033312;28;20394;-81
2022/10/15 04:25:51;;;;;;;9.00;2.50;;;;;;;;;;5033318;28;20394;-80
2022/10/15 04:28:17;;;;;;;3.08;2.30;;;;;;;;;;5033419;28;20029;-81
2022/10/15 04:30:44;;;;;;;7.13;2.63;;;;;;;;;;5033305;28;20048;-81
2022/10/15 04:33:10;;;;;;;6.55;2.40;;;;;;;;;;5034941;28;20075;-80
2022/10/15 04:35:36;;;;;;;6.03;2.25;;;;;;;;;;5044224;28;20074;-81
2022/10/15 04:38:03;;;;;;;4.43;2.50;;;;;;;;;;5032978;28;20452;-81
2022/10/15 04:40:29;;;;;;;3.15;2.40;;;;;;;;;;5033212;28;20385;-81
2022/10/15 04:42:55;;;;;;;12.13;2.70;;;;;;;;;;5032756;28;20512;-81
2022/10/15 04:45:22;;;;;;;7.05;2.63;;;;;;;;;;5033011;28;20078;-81
2022/10/15 04:47:48;;;;;;;9.30;2.80;;;;;;;;;;5033149;28;20026;-81
2022/10/15 04:50:14;;;;;;;5.88;2.78;;;;;;;;;;5032338;28;20029;-81
2022/10/15 04:52:41;;;;;;;4.70;1.90;;;;;;;;;;5032832;28;20041;-80
2022/10/15 04:55:07;;;;;;;5.22;1.90;;;;;;;;;;5032572;28;20114;-80
2022/10/15 04:57:33;;;;;;;2.70;2.25;;;;;;;;;;5048231;28;20048;-81
2022/10/15 05:00:00;;;;;;;3.33;2.20;;;;;;;;;;5032520;28;20368;-80
2022/10/15 05:02:26;;;;;;;6.65;2.10;;;;;;;;;;5032848;28;20028;-81
2022/10/15 05:04:53;;;;;;;9.55;2.30;;;;;;;;;;5032138;28;20022;-81
2022/10/15 05:07:19;;;;;;;5.35;2.53;;;;;;;;;;5032451;28;20035;-81
2022/10/15 05:09:46;;;;;;;8.70;2.63;;;;;;;;;;5048082;28;20017;-80
2022/10/15 05:12:12;;;;;;;4.53;2.50;;;;;;;;;;5047714;28;20042;-80
2022/10/15 05:14:38;;;;;;;9.85;2.17;;;;;;;;;;5032148;28;20054;-80
2022/10/15 05:17:05;;;;;;;5.63;2.42;;;;;;;;;;5032390;28;20041;-81
2022/10/15 05:19:31;;;;;;;10.20;2.53;;;;;;;;;;5032012;28;20021;-80
2022/10/15 05:21:57;;;;;;;3.83;2.80;;;;;;;;;;5031948;28;20041;-80
2022/10/15 05:24:24;;;;;;;9.48;2.78;;;;;;;;;;5032299;28;20436;-81
2022/10/15 05:26:50;;;;;;;5.40;2.42;;;;;;;;;;5032267;28;20032;-80
2022/10/15 05:29:16;;;;;;;3.35;1.98;;;;;;;;;;5047476;28;20490;-81
2022/10/15 05:31:43;;;;;;;4.47;2.80;;;;;;;;;;5032019;28;20037;-81
2022/10/15 05:34:09;;;;;;;6.28;2.47;;;;;;;;;;5047183;28;20036;-81
2022/10/15 05:36:35;;;;;;;4.70;2.40;;;;;;;;;;5032455;28;20031;-80
2022/10/15 05:39:03;;;;;;;8.68;2.20;;;;;;;;;;5047594;28;20025;-80
2022/10/15 05:41:29;;;;;;;4.47;2.35;;;;;;;;;;5032162;28;20058;-81
2022/10/15 05:43:56;;;;;;;3.45;2.40;;;;;;;;;;5031789;28;20029;-80
2022/10/15 05:46:23;;;;;;;5.10;2.50;;;;;;;;;;5031979;28;20021;-81
2022/10/15 05:48:50;;;;;;;4.07;2.60;;;;;;;;;;5031697;28;20436;-81
2022/10/15 05:51:16;;;;;;;4.55;2.40;;;;;;;;;;5038295;28;20044;-81
2022/10/15 05:53:45;;;;;;;3.88;2.33;;;;;;;;;;5035742;28;20506;-81
2022/10/15 05:56:11;;;;;;;3.10;1.95;;;;;;;;;;5032097;28;20079;-81
2022/10/15 05:58:38;;;;;;;3.53;1.92;;;;;;;;;;5031822;28;20096;-81
2022/10/15 06:01:06;;;;;;;8.73;2.10;;;;;;;;;;5031914;28;20029;-81
2022/10/15 06:03:33;;;;;;;6.53;2.03;;;;;;;;;;5031678;28;20018;-81
2022/10/15 06:05:59;;;;;;;3.75;2.05;;;;;;;;;;5052040;28;20028;-81
2022/10/15 06:08:27;;;;;;;8.32;2.63;;;;;;;;;;5051909;28;20021;-80
2022/10/15 06:10:54;;;;;;;7.05;2.03;;;;;;;;;;5051804;28;20028;-80
2022/10/15 06:13:21;;;;;;;2.38;1.77;;;;;;;;;;5051445;28;20509;-79
2022/10/15 06:15:47;;;;;;;2.90;1.67;;;;;;;;;;5051573;28;20025;-79
2022/10/15 06:18:15;;;;;;;3.00;2.00;;;;;;;;;;5051478;28;20024;-79
2022/10/15 06:20:44;;;;;;;3.10;2.22;;;;;;;;;;5051411;28;20031;-80
2022/10/15 06:23:12;;;;;;;4.07;1.83;;;;;;;;;;5051517;28;20017;-80
2022/10/15 06:25:38;;;;;;;5.63;2.50;;;;;;;;;;5051837;28;20017;-79
2022/10/15 06:28:05;;;;;;;3.28;2.00;;;;;;;;;;5051742;28;20025;-79
2022/10/15 06:30:32;;;;;;;3.47;2.30;;;;;;;;;;5050875;28;20036;-80
2022/10/15 06:32:58;;;;;;;4.15;2.53;;;;;;;;;;5051927;28;20048;-79
2022/10/15 06:35:25;;;;;;;4.25;2.17;;;;;;;;;;5055362;28;20021;-79
2022/10/15 06:37:52;;;;;;;3.55;2.10;;;;;;;;;;5055201;28;20025;-79
2022/10/15 06:40:18;;;;;;;3.00;1.60;;;;;;;;;;5054985;28;20389;-79
2022/10/15 06:42:45;;;;;;;1.70;1.60;;;;;;;;;;5046641;28;20020;-80
2022/10/15 06:45:11;;;;;;;3.25;1.83;;;;;;;;;;5035337;28;20044;-81
2022/10/15 06:47:40;;;;;;;2.33;1.98;;;;;;;;;;5034700;28;20025;-80
2022/10/15 06:50:06;;;;;;;2.65;1.65;;;;;;;;;;5035150;28;20021;-80
2022/10/15 06:52:33;;;;;;;2.25;2.05;;;;;;;;;;5034840;28;20043;-81
2022/10/15 06:54:59;;;;;;;5.70;1.83;;;;;;;;;;5035240;28;20024;-81
2022/10/15 06:57:27;;;;;;;4.22;2.38;;;;;;;;;;5034939;28;20026;-81
2022/10/15 06:59:53;;;;;;;1.95;1.48;;;;;;;;;;5034881;28;20067;-80
2022/10/15 07:02:20;;;;;;;4.10;1.38;;;;;;;;;;5033726;28;20021;-81
2022/10/15 07:04:46;;;;;;;2.38;1.35;;;;;;;;;;5034627;28;20439;-81
2022/10/15 07:07:13;;;;;;;6.53;1.42;;;;;;;;;;5036830;28;20024;-80
2022/10/15 07:09:39;;;;;;;6.65;1.60;;;;;;;;;;5040092;28;20115;-81
2022/10/15 07:12:06;;;;;;;3.65;1.88;;;;;;;;;;5034590;28;20497;-81
2022/10/15 07:14:32;;;;;;;2.72;1.63;;;;;;;;;;5032960;28;20506;-80
2022/10/15 07:16:59;;;;;;;6.78;1.65;;;;;;;;;;5034447;28;20508;-81
2022/10/15 07:19:27;;;;;;;4.13;1.60;;;;;;;;;;5034387;28;20024;-81
2022/10/15 07:21:53;;;;;;;4.32;1.40;;;;;;;;;;5034409;28;20025;-81
2022/10/15 07:24:20;;;;;;;6.10;1.60;;;;;;;;;;5034427;28;20025;-81
2022/10/15 07:26:49;;;;;;;1.52;1.42;;;;;;;;;;5034218;28;20031;-81
2022/10/15 07:29:15;;;;;;;2.88;1.60;;;;;;;;;;5033864;28;20504;-81
2022/10/15 07:31:42;;;;;;;4.22;1.63;;;;;;;;;;5034545;28;20471;-80
2022/10/15 07:34:08;;;;;;;2.63;1.58;;;;;;;;;;5035267;28;20479;-81
2022/10/15 07:36:35;;;;;;;2.00;1.45;;;;;;;;;;5034120;28;20517;-81
2022/10/15 07:39:01;;;;;;;1.88;1.30;;;;;;;;;;5033984;28;20029;-81
2022/10/15 07:41:27;;;;;;;1.73;1.40;;;;;;;;;;5033914;28;20098;-81
2022/10/15 07:43:54;;;;;;;3.55;1.38;;;;;;;;;;5033759;28;20025;-81
2022/10/15 07:46:20;;;;;;;1.90;1.20;;;;;;;;;;5048688;28;20025;-81
2022/10/15 07:48:46;;;;;;;3.10;1.48;;;;;;;;;;5033953;28;20030;-81
2022/10/15 07:51:13;;;;;;;2.55;1.58;;;;;;;;;;5033736;28;20022;-81
2022/10/15 07:53:39;;;;;;;2.00;1.38;;;;;;;;;;5034020;28;20063;-81
2022/10/15 07:56:07;;;;;;;4.07;1.73;;;;;;;;;;5033579;28;20021;-81
2022/10/15 07:58:34;;;;;;;2.67;2.05;;;;;;;;;;5033403;28;20037;-81
2022/10/15 08:01:01;;;;;;;3.45;1.73;;;;;;;;;;5034006;28;20018;-81
2022/10/15 08:03:29;;;;;;;2.10;1.60;;;;;;;;;;5033798;28;20033;-82
2022/10/15 08:05:55;;;;;;;2.47;1.40;;;;;;;;;;5033585;28;20025;-80
2022/10/15 08:08:22;;;;;;;3.05;1.48;;;;;;;;;;5033382;28;20036;-80
2022/10/15 08:10:48;;;;;;;2.67;1.40;;;;;;;;;;5033238;28;20032;-81
2022/10/15 08:13:15;;;;;;;2.45;1.40;;;;;;;;;;5032935;28;20533;-81
2022/10/15 08:15:42;;;;;;;4.95;1.65;;;;;;;;;;5033387;28;20013;-81
2022/10/15 08:18:11;;;;;;;2.15;1.40;;;;;;;;;;5033322;28;20045;-81
2022/10/15 08:20:37;;;;;;;5.13;1.55;;;;;;;;;;5033060;28;20536;-81
2022/10/15 08:23:04;;;;;;;1.58;1.40;;;;;;;;;;5033458;28;20402;-80
2022/10/15 08:25:31;;;;;;;3.70;1.52;;;;;;;;;;5037487;28;20024;-80
2022/10/15 08:27:58;;;;;;;1.70;1.60;;;;;;;;;;5033312;28;20029;-81
2022/10/15 08:30:24;;;;;;;4.25;1.35;;;;;;;;;;5032925;28;20032;-81
2022/10/15 08:32:51;;;;;;;1.83;1.60;;;;;;;;;;5032891;28;20033;-81
2022/10/15 08:35:17;;;;;;;2.25;1.30;;;;;;;;;;5033314;28;20029;-81
2022/10/15 08:37:44;;;;;;;2.53;1.40;;;;;;;;;;5032935;28;20024;-80
2022/10/15 08:40:12;;;;;;;1.67;1.20;;;;;;;;;;5033067;28;20025;-81
2022/10/15 08:42:41;;;;;;;2.00;1.60;;;;;;;;;;5032295;28;20398;-81
2022/10/15 08:45:12;;;;;;;2.65;1.27;;;;;;;;;;5045201;28;20040;-81
2022/10/15 08:47:58;;;;;;;2.67;1.75;;;;;;;;;;5033100;28;20031;-80
2022/10/15 08:50:45;;;;;;;1.75;1.50;;;;;;;;;;5032728;28;20029;-81
2022/10/15 08:53:13;;;;;;;2.08;1.50;;;;;;;;;;5032646;28;20383;-81
2022/10/15 08:55:42;;;;;;;1.67;1.33;;;;;;;;;;5032482;28;20029;-81
2022/10/15 08:58:12;;;;;;;1.27;1.17;;;;;;;;;;5031881;28;20029;-80
2022/10/15 09:00:43;;;;;;;3.88;1.17;;;;;;;;;;5032519;28;20052;-81
2022/10/15 09:03:28;;;;;;;1.63;1.27;;;;;;;;;;5032545;28;20040;-81
2022/10/15 09:06:10;;;;;;;2.47;1.23;;;;;;;;;;5032516;28;20367;-81
2022/10/15 09:08:52;;;;;;;2.63;1.55;;;;;;;;;;5032448;28;20024;-81
2022/10/15 09:11:27;;;;;;;3.58;1.40;;;;;;;;;;5031826;28;20029;-81
2022/10/15 09:13:53;;;;;;;2.03;1.23;;;;;;;;;;5032166;28;20457;-81
2022/10/15 09:16:22;;;;;;;3.28;1.20;;;;;;;;;;5032586;28;20029;-82
2022/10/15 09:18:53;;;;;;;4.43;1.30;;;;;;;;;;5032862;28;20504;-81
2022/10/15 09:21:19;;;;;;;;;;;;;;;;;;5032678;28;20033;-81
2022/10/15 09:23:46;;;;;;;1.45;1.35;;;;;;;;;;5032511;28;19909;-81
2022/10/15 09:26:12;;;;;;;1.58;1.33;;;;;;;;;;5032105;28;20025;-81
2022/10/15 09:28:41;;;;;;;1.80;1.02;;;;;;;;;;5032263;28;20033;-82
2022/10/15 09:31:08;;;;;;;2.92;1.30;;;;;;;;;;5032153;28;20025;-82
2022/10/15 09:33:47;;;;;;;1.40;1.30;;;;;;;;;;5032081;28;20039;-81
2022/10/15 09:36:16;;;;;;;1.20;0.85;;;;;;;;;;5032242;28;20017;-82
2022/10/15 09:38:43;;;;;;;1.60;1.30;;;;;;;;;;5032040;28;20022;-82
2022/10/15 09:41:18;;;;;;;1.83;1.00;;;;;;;;;;5050557;28;20024;-81
2022/10/15 09:43:47;;;;;;;1.85;1.10;;;;;;;;;;5035063;28;20029;-82
2022/10/15 09:46:13;;;;;;;1.33;0.93;;;;;;;;;;5031864;28;20486;-82
2022/10/15 09:48:43;;;;;;;2.22;1.17;;;;;;;;;;5032039;28;20091;-82
2022/10/15 09:51:19;;;;;;;7.05;1.02;;;;;;;;;;5031819;28;20031;-82
2022/10/15 09:53:56;;;;;;;1.70;0.93;;;;;;;;;;5031564;28;20038;-81
2022/10/15 09:56:51;;;;;;;1.40;0.80;;;;;;;;;;5031959;28;20528;-82
2022/10/15 09:59:18;;;;;;;1.90;0.80;;;;;;;;;;5027665;28;20046;-82
2022/10/15 10:01:58;;;;;;;1.50;0.77;;;;;;;;;;5031855;28;20494;-82
2022/10/15 10:04:27;;;;;;;3.92;0.80;;;;;;;;;;5031909;28;20375;-82
2022/10/15 10:06:54;;;;;;;0.98;0.70;;;;;;;;;;5032018;28;20026;-82
2022/10/15 10:09:23;;;;;;;3.58;0.70;;;;;;;;;;5034416;28;20025;-82
2022/10/15 10:11:57;;;;;;;1.42;0.80;;;;;;;;;;5035719;28;20086;-82
2022/10/15 10:14:42;;;;;;;4.28;0.80;;;;;;;;;;5035782;28;20063;-82
2022/10/15 10:17:17;;;;;;;1.02;0.70;;;;;;;;;;5035667;28;20051;-82
2022/10/15 10:19:44;;;;;;;2.35;0.68;;;;;;;;;;5035387;28;20022;-82
2022/10/15 10:22:19;;;;;;;0.82;0.70;;;;;;;;;;5035792;28;20026;-83
2022/10/15 10:24:46;;;;;;;1.92;0.70;;;;;;;;;;5035298;28;20037;-81
2022/10/15 10:27:18;;;;;;;1.15;0.70;;;;;;;;;;5035519;28;20471;-82
2022/10/15 10:29:47;;;;;;;0.68;0.60;;;;;;;;;;5035445;28;20029;-82
2022/10/15 10:32:22;;;;;;;1.55;0.70;;;;;;;;;;5035191;28;20159;-81
2022/10/15 10:34:48;;;;;;;0.85;0.85;;;;;;;;;;5035210;28;20033;-82
2022/10/15 10:37:15;;;;;;;2.33;0.70;;;;;;;;;;5034874;28;20503;-79
2022/10/15 10:39:43;;;;;;;1.10;0.63;;;;;;;;;;5035244;28;20029;-83
2022/10/15 10:42:23;;;;;;;0.60;0.60;;;;;;;;;;5035085;28;20025;-82
2022/10/15 10:44:52;;;;;;;0.68;0.52;;;;;;;;;;5035436;28;20029;-83
2022/10/15 10:47:22;;;;;;;0.68;0.68;;;;;;;;;;5034834;28;20506;-80
2022/10/15 10:49:48;;;;;;;1.33;0.90;;;;;;;;;;5034931;28;20505;-81
2022/10/15 10:52:20;;;;;;;3.45;0.77;;;;;;;;;;5034489;28;20037;-81
2022/10/15 10:54:46;;;;;;;0.90;0.57;;;;;;;;;;5035258;28;20025;-82
2022/10/15 10:57:16;;;;;;;2.10;0.60;;;;;;;;;;5038682;28;20502;-82
2022/10/15 10:59:48;;;;;;;0.50;0.50;;;;;;;;;;5045389;28;20104;-83
2022/10/15 11:02:14;;;;;;;0.85;0.55;;;;;;;;;;5034939;28;20018;-82
2022/10/15 11:04:40;;;;;;;3.85;0.70;;;;;;;;;;5035058;28;20021;-82
2022/10/15 11:07:13;;;;;;;1.08;0.60;;;;;;;;;;5034491;28;20104;-82
2022/10/15 11:09:53;;;;;;;1.95;0.55;;;;;;;;;;5034555;28;20028;-82
2022/10/15 11:12:19;;;;;;;0.95;0.50;;;;;;;;;;5034847;28;20029;-83
2022/10/15 11:15:09;;;;;;;0.60;0.60;;;;;;;;;;5034311;28;20042;-83
2022/10/15 11:17:35;;;;;;;3.60;0.85;;;;;;;;;;5012526;28;20056;-83
2022/10/15 11:20:23;;;;;;;0.88;0.50;;;;;;;;;;5011641;28;20038;-83
2022/10/15 11:22:52;;;;;;;0.90;0.68;;;;;;;;;;5012411;28;20059;-82
2022/10/15 11:25:41;;;;;;;3.67;0.50;;;;;;;;;;5012314;28;20030;-82
2022/10/15 11:28:22;;;;;;;1.63;0.60;;;;;;;;;;5005112;28;20052;-82
2022/10/15 11:30:59;;;;;;;1.48;0.70;;;;;;;;;;5012210;28;20032;-82
2022/10/15 11:33:41;;;;;;;1.17;0.70;;;;;;;;;;5012141;28;20048;-83
2022/10/15 11:36:17;;;;;;;1.08;0.47;;;;;;;;;;5011702;28;20038;-82
2022/10/15 11:38:44;;;;;;;1.27;0.60;;;;;;;;;;4995823;28;20530;-82
2022/10/15 11:41:28;;;;;;;1.50;0.70;;;;;;;;;;5012447;28;20033;-82
2022/10/15 11:44:06;;;;;;;1.00;0.52;;;;;;;;;;5001290;28;20030;-83
2022/10/15 11:46:38;;;;;;;2.33;0.55;;;;;;;;;;5011847;28;20061;-82
2022/10/15 11:49:24;;;;;;;0.57;0.52;;;;;;;;;;4995946;28;20029;-83
2022/10/15 11:52:05;;;;;;;2.28;0.55;;;;;;;;;;5011564;28;20034;-83
2022/10/15 11:54:34;;;;;;;1.23;0.60;;;;;;;;;;5022207;28;20041;-82
2022/10/15 11:57:02;;;;;;;2.87;0.60;;;;;;;;;;5033916;28;20021;-83
2022/10/15 11:59:42;;;;;;;3.40;0.60;;;;;;;;;;5033747;28;20286;-82
2022/10/15 12:02:12;;;;;;;0.70;0.60;;;;;;;;;;5033916;28;20029;-82
2022/10/15 12:04:41;;;;;;;0.63;0.50;;;;;;;;;;5048868;28;20028;-82
2022/10/15 12:07:13;;;;;;;1.87;0.60;;;;;;;;;;5034078;28;20567;-83
2022/10/15 12:09:41;;;;;;;1.65;0.50;;;;;;;;;;5033479;28;20067;-83
2022/10/15 12:12:11;;;;;;;1.35;0.60;;;;;;;;;;5032097;28;20038;-82
2022/10/15 12:14:43;;;;;;;2.08;0.77;;;;;;;;;;5033910;28;20045;-82
2022/10/15 12:17:15;;;;;;;0.60;0.60;;;;;;;;;;5034376;28;20029;-83
2022/10/15 12:19:56;;;;;;;1.05;0.65;;;;;;;;;;5032943;28;20021;-83
2022/10/15 12:22:33;;;;;;;1.83;0.77;;;;;;;;;;5033106;28;20494;-82
2022/10/15 12:25:01;;;;;;;1.27;0.57;;;;;;;;;;5033251;28;20026;-82
2022/10/15 12:27:33;;;;;;;1.23;0.80;;;;;;;;;;5033131;28;20402;-83
2022/10/15 12:29:59;;;;;;;1.58;0.80;;;;;;;;;;5033239;28;20071;-82
2022/10/15 12:32:27;;;;;;;2.28;0.80;;;;;;;;;;5032635;28;20034;-83
2022/10/15 12:34:55;;;;;;;0.70;0.70;;;;;;;;;;5032604;28;20035;-82
2022/10/15 12:37:22;;;;;;;1.92;0.88;;;;;;;;;;5032788;28;20377;-82
2022/10/15 12:39:54;;;;;;;0.63;0.63;;;;;;;;;;5032947;28;20025;-83
2022/10/15 12:42:35;;;;;;;1.05;0.88;;;;;;;;;;5032696;28;20020;-82
2022/10/15 12:45:04;;;;;;;4.80;0.80;;;;;;;;;;5032803;28;20344;-82
2022/10/15 12:47:52;;;;;;;2.17;0.70;;;;;;;;;;5032635;28;20389;-83
2022/10/15 12:50:21;;;;;;;1.65;0.75;;;;;;;;;;5048275;28;20034;-83
2022/10/15 12:52:50;;;;;;;0.80;0.70;;;;;;;;;;5032848;28;20482;-83
2022/10/15 12:55:35;;;;;;;3.13;1.05;;;;;;;;;;5032818;28;20021;-82
2022/10/15 12:58:24;;;;;;;1.85;0.75;;;;;;;;;;5032405;28;20456;-83
2022/10/15 13:00:50;;;;;;;2.47;0.70;;;;;;;;;;5032668;28;20026;-83
2022/10/15 13:03:20;;;;;;;0.80;0.80;;;;;;;;;;5032434;28;20033;-83
2022/10/15 13:05:46;;;;;;;1.90;1.00;;;;;;;;;;5047988;28;20023;-83
2022/10/15 13:08:21;;;;;;;1.55;0.93;;;;;;;;;;5032760;28;20034;-83
2022/10/15 13:10:58;;;;;;;2.33;0.80;;;;;;;;;;5032539;28;20030;-83
2022/10/15 13:13:29;;;;;;;0.85;0.80;;;;;;;;;;5032319;28;20433;-83
2022/10/15 13:16:06;;;;;;;1.60;0.82;;;;;;;;;;5032465;28;20033;-83
2022/10/15 13:18:32;;;;;;;1.08;0.70;;;;;;;;;;5032345;28;20022;-83
2022/10/15 13:20:58;;;;;;;1.23;0.80;;;;;;;;;;5032364;28;20021;-83
2022/10/15 13:23:27;;;;;;;1.83;0.90;;;;;;;;;;5032353;28;20019;-83
2022/10/15 13:26:12;;;;;;;2.17;0.90;;;;;;;;;;5032482;28;20024;-83
2022/10/15 13:28:41;;;;;;;1.45;0.70;;;;;;;;;;5032062;28;20035;-83
2022/10/15 13:31:13;;;;;;;0.65;0.65;;;;;;;;;;5033940;28;20030;-83
2022/10/15 13:33:41;;;;;;;1.77;0.85;;;;;;;;;;5035757;28;20086;-83
2022/10/15 13:36:08;;;;;;;2.30;0.70;;;;;;;;;;5032044;28;20389;-83
2022/10/15 13:38:35;;;;;;;2.20;0.70;;;;;;;;;;5031031;28;20038;-83
2022/10/15 13:41:01;;;;;;;0.93;0.57;;;;;;;;;;5032143;28;20032;-83
2022/10/15 13:43:28;;;;;;;1.48;0.70;;;;;;;;;;5035644;28;20033;-83
2022/10/15 13:45:55;;;;;;;0.60;0.60;;;;;;;;;;5038291;28;20030;-83
2022/10/15 13:48:23;;;;;;;1.73;1.30;;;;;;;;;;5038592;28;20021;-83
2022/10/15 13:50:54;;;;;;;2.92;1.02;;;;;;;;;;5038473;28;20026;-83
2022/10/15 13:53:23;;;;;;;2.78;1.05;;;;;;;;;;5038536;28;20043;-83
2022/10/15 13:55:50;;;;;;;;;;;;;;;;;;5038973;28;20019;-82
2022/10/15 13:58:21;;;;;;;1.27;0.75;;;;;;;;;;5038416;28;19908;-83
2022/10/15 14:00:55;;;;;;;2.17;0.70;;;;;;;;;;5037973;28;20391;-83
2022/10/15 14:03:24;;;;;;;0.98;0.60;;;;;;;;;;5038292;28;20063;-83
2022/10/15 14:05:51;;;;;;;1.60;0.50;;;;;;;;;;5038625;28;20402;-82
2022/10/15 14:08:23;;;;;;;1.00;0.70;;;;;;;;;;5038315;28;20040;-83
2022/10/15 14:10:50;;;;;;;1.55;0.70;;;;;;;;;;5038714;28;20032;-83
2022/10/15 14:13:17;;;;;;;1.02;0.50;;;;;;;;;;5038020;28;20041;-83
2022/10/15 14:15:48;;;;;;;1.13;0.63;;;;;;;;;;5038191;28;20397;-82
2022/10/15 14:18:16;;;;;;;1.83;0.60;;;;;;;;;;5038352;28;20036;-82
2022/10/15 14:20:46;;;;;;;2.35;0.70;;;;;;;;;;5038113;28;20100;-83
2022/10/15 14:23:20;;;;;;;1.67;0.60;;;;;;;;;;5038284;28;20502;-82
2022/10/15 14:25:51;;;;;;;1.17;0.70;;;;;;;;;;5038475;28;20034;-82
2022/10/15 14:28:21;;;;;;;1.90;0.70;;;;;;;;;;5038163;28;20026;-82
2022/10/15 14:30:47;;;;;;;2.70;0.73;;;;;;;;;;5037848;28;20030;-82
2022/10/15 14:33:32;;;;;;;1.33;0.60;;;;;;;;;;5038162;28;20041;-82
2022/10/15 14:36:12;;;;;;;1.13;0.60;;;;;;;;;;5038220;28;20037;-82
2022/10/15 14:38:39;;;;;;;2.15;0.60;;;;;;;;;;5038016;28;20032;-82
2022/10/15 14:41:22;;;;;;;3.17;0.60;;;;;;;;;;5038087;28;20507;-82
2022/10/15 14:44:00;;;;;;;0.95;0.80;;;;;;;;;;5037560;28;20037;-82
2022/10/15 14:46:31;;;;;;;9.05;1.55;;;;;;;;;;5038274;28;20044;-81
2022/10/15 14:48:57;;;;;;;0.70;0.60;;;;;;;;;;5038258;28;20484;-83
2022/10/15 14:51:24;;;;;;;2.55;0.80;;;;;;;;;;5042968;28;20583;-82
2022/10/15 14:53:52;;;;;;;2.88;0.60;;;;;;;;;;5038161;28;20444;-82
2022/10/15 14:56:19;;;;;;;3.55;1.05;;;;;;;;;;5050060;28;20025;-82